createdAt,value
2018-09-15T00:00:52.902Z,99.90
2018-09-15T00:03:21.442Z,99.90
2018-09-15T00:05:49.720Z,99.90
2018-09-15T00:08:18.045Z,99.90
2018-09-15T00:10:46.556Z,99.90
2018-09-15T00:13:15.277Z,99.90
2018-09-15T00:15:43.600Z,99.90
2018-09-15T00:18:13.524Z,99.90
2018-09-15T00:20:41.806Z,99.90
2018-09-15T00:23:11.062Z,99.90
2018-09-15T00:25:41.219Z,99.90
2018-09-15T00:28:10.302Z,99.90
2018-09-15T00:30:38.690Z,99.90
2018-09-15T00:33:06.985Z,99.90
2018-09-15T00:35:35.287Z,99.90
2018-09-15T00:38:03.603Z,99.90
2018-09-15T00:40:31.955Z,99.90
2018-09-15T00:43:00.258Z,99.90
2018-09-15T00:45:28.634Z,99.90
2018-09-15T00:47:57.140Z,99.90
2018-09-15T00:50:25.453Z,99.90
2018-09-15T00:52:53.754Z,99.90
2018-09-15T00:55:22.035Z,99.90
2018-09-15T00:57:50.322Z,99.90
2018-09-15T01:00:19.812Z,99.90
2018-09-15T01:02:48.105Z,99.90
2018-09-15T01:05:16.558Z,99.90
2018-09-15T01:07:44.903Z,99.90
2018-09-15T01:10:13.154Z,99.90
2018-09-15T01:12:41.442Z,99.90
2018-09-15T01:15:09.743Z,99.90
2018-09-15T01:17:38.021Z,99.90
2018-09-15T01:20:06.339Z,99.90
2018-09-15T01:22:34.612Z,99.90
2018-09-15T01:25:02.890Z,99.90
2018-09-15T01:27:31.234Z,99.90
2018-09-15T01:29:59.507Z,99.90
2018-09-15T01:32:28.454Z,99.90
2018-09-15T01:34:57.050Z,99.90
2018-09-15T01:37:25.562Z,99.90
2018-09-15T01:39:53.863Z,99.90
2018-09-15T01:42:22.143Z,99.90
2018-09-15T01:44:50.437Z,99.90
2018-09-15T01:47:18.714Z,99.90
2018-09-15T01:49:47.052Z,99.90
2018-09-15T01:52:15.352Z,99.90
2018-09-15T01:54:43.642Z,99.90
2018-09-15T01:57:12.255Z,99.90
2018-09-15T01:59:40.578Z,99.90
2018-09-15T02:02:08.891Z,99.90
2018-09-15T02:04:37.160Z,99.90
2018-09-15T02:07:05.436Z,99.90
2018-09-15T02:09:33.699Z,99.90
2018-09-15T02:12:01.971Z,99.90
2018-09-15T02:14:30.239Z,99.90
2018-09-15T02:16:58.606Z,99.90
2018-09-15T02:19:26.890Z,99.90
2018-09-15T02:21:55.181Z,99.90
2018-09-15T02:24:23.461Z,99.90
2018-09-15T02:26:51.738Z,99.90
2018-09-15T02:29:20.015Z,99.90
2018-09-15T02:31:48.302Z,99.90
2018-09-15T02:34:16.570Z,99.90
2018-09-15T02:36:44.843Z,99.90
2018-09-15T02:39:13.483Z,99.90
2018-09-15T02:41:41.765Z,99.90
2018-09-15T02:44:10.055Z,99.90
2018-09-15T02:46:38.333Z,99.90
2018-09-15T02:49:06.631Z,99.90
2018-09-15T02:51:34.914Z,99.90
2018-09-15T02:54:03.186Z,99.90
2018-09-15T02:56:31.469Z,99.90
2018-09-15T02:58:59.746Z,99.90
2018-09-15T03:01:28.025Z,99.90
2018-09-15T03:03:56.288Z,99.90
2018-09-15T03:06:24.682Z,99.90
2018-09-15T03:08:52.956Z,99.90
2018-09-15T03:11:21.231Z,99.90
2018-09-15T03:13:49.527Z,99.90
2018-09-15T03:16:17.794Z,99.90
2018-09-15T03:18:46.076Z,99.90
2018-09-15T03:21:14.352Z,99.90
2018-09-15T03:23:42.628Z,99.90
2018-09-15T03:26:10.893Z,99.90
2018-09-15T03:28:39.168Z,99.90
2018-09-15T03:31:07.450Z,99.90
2018-09-15T03:33:36.804Z,99.90
2018-09-15T03:36:05.058Z,99.90
2018-09-15T03:38:33.324Z,99.90
2018-09-15T03:41:01.592Z,99.90
2018-09-15T03:43:29.855Z,99.90
2018-09-15T03:45:58.110Z,99.90
2018-09-15T03:48:26.380Z,99.90
2018-09-15T03:50:54.644Z,99.90
2018-09-15T03:53:22.922Z,99.90
2018-09-15T03:55:51.183Z,99.90
2018-09-15T03:58:19.438Z,99.90
2018-09-15T04:00:48.833Z,99.90
2018-09-15T04:03:17.303Z,99.90
2018-09-15T04:05:45.575Z,99.90
2018-09-15T04:08:13.885Z,99.90
2018-09-15T04:10:42.309Z,99.90
2018-09-15T04:13:10.592Z,99.90
2018-09-15T04:15:38.880Z,99.90
2018-09-15T04:18:07.368Z,99.90
2018-09-15T04:20:35.663Z,99.90
2018-09-15T04:23:03.984Z,99.90
2018-09-15T04:25:32.282Z,99.90
2018-09-15T04:28:00.554Z,99.90
2018-09-15T04:30:28.828Z,99.90
2018-09-15T04:32:57.112Z,99.90
2018-09-15T04:35:25.451Z,99.90
2018-09-15T04:37:53.710Z,99.90
2018-09-15T04:40:21.979Z,99.90
2018-09-15T04:42:50.268Z,99.90
2018-09-15T04:45:18.536Z,99.90
2018-09-15T04:47:46.819Z,99.90
2018-09-15T04:50:15.088Z,99.90
2018-09-15T04:52:43.403Z,99.90
2018-09-15T04:55:11.659Z,99.90
2018-09-15T04:57:39.928Z,99.90
2018-09-15T05:00:08.249Z,99.90
2018-09-15T05:02:36.482Z,99.90
2018-09-15T05:05:04.783Z,99.90
2018-09-15T05:07:33.022Z,99.90
2018-09-15T05:10:01.275Z,99.90
2018-09-15T05:12:29.550Z,99.90
2018-09-15T05:14:57.767Z,99.90
2018-09-15T05:17:26.003Z,99.90
2018-09-15T05:19:54.314Z,99.90
2018-09-15T05:22:22.570Z,99.90
2018-09-15T05:24:50.827Z,99.90
2018-09-15T05:27:19.071Z,99.90
2018-09-15T05:29:47.332Z,99.90
2018-09-15T05:32:15.589Z,99.90
2018-09-15T05:34:43.874Z,99.90
2018-09-15T05:37:12.272Z,99.90
2018-09-15T05:39:40.619Z,99.90
2018-09-15T05:42:08.866Z,99.90
2018-09-15T05:44:37.107Z,99.90
2018-09-15T05:47:05.508Z,99.90
2018-09-15T05:49:34.628Z,99.90
2018-09-15T05:52:02.992Z,99.90
2018-09-15T05:54:31.237Z,99.90
2018-09-15T05:56:59.491Z,99.90
2018-09-15T05:59:27.886Z,99.90
2018-09-15T06:01:56.311Z,99.90
2018-09-15T06:04:24.549Z,99.90
2018-09-15T06:06:52.851Z,99.90
2018-09-15T06:09:21.090Z,99.90
2018-09-15T06:11:49.428Z,99.90
2018-09-15T06:14:17.699Z,99.90
2018-09-15T06:16:46.463Z,99.90
2018-09-15T06:19:15.550Z,99.90
2018-09-15T06:21:45.972Z,99.90
2018-09-15T06:24:14.388Z,99.90
2018-09-15T06:26:44.703Z,99.90
2018-09-15T06:29:13.562Z,99.90
2018-09-15T06:31:43.422Z,99.90
2018-09-15T06:34:11.823Z,99.90
2018-09-15T06:36:40.504Z,99.90
2018-09-15T06:39:10.132Z,99.90
2018-09-15T06:41:38.870Z,99.90
2018-09-15T06:44:07.179Z,99.90
2018-09-15T06:46:35.610Z,99.90
2018-09-15T06:49:04.191Z,99.90
2018-09-15T06:51:32.775Z,99.90
2018-09-15T06:54:01.448Z,99.90
2018-09-15T06:56:29.782Z,99.90
2018-09-15T06:58:58.455Z,99.90
2018-09-15T07:01:26.749Z,99.90
2018-09-15T07:03:55.223Z,99.90
2018-09-15T07:06:23.773Z,99.90
2018-09-15T07:08:52.205Z,99.90
2018-09-15T07:11:20.673Z,99.90
2018-09-15T07:13:49.206Z,99.90
2018-09-15T07:16:17.474Z,99.90
2018-09-15T07:18:45.837Z,99.90
2018-09-15T07:21:14.163Z,99.90
2018-09-15T07:23:42.637Z,99.90
2018-09-15T07:26:10.935Z,99.90
2018-09-15T07:28:39.295Z,99.90
2018-09-15T07:31:07.609Z,96.30
2018-09-15T07:33:35.894Z,86.20
2018-09-15T07:36:04.488Z,78.90
2018-09-15T07:38:32.808Z,75.20
2018-09-15T07:41:01.078Z,62.40
2018-09-15T07:43:29.456Z,51.00
2018-09-15T07:45:57.726Z,46.90
2018-09-15T07:48:25.991Z,44.30
2018-09-15T07:50:54.231Z,43.90
2018-09-15T07:53:22.536Z,40.70
2018-09-15T07:55:50.781Z,37.80
2018-09-15T07:58:19.079Z,36.10
2018-09-15T08:00:47.360Z,35.40
2018-09-15T08:03:16.688Z,35.50
2018-09-15T08:05:44.995Z,34.00
2018-09-15T08:08:13.291Z,31.00
2018-09-15T08:10:41.610Z,28.70
2018-09-15T08:13:09.935Z,29.20
2018-09-15T08:15:38.221Z,27.50
2018-09-15T08:18:06.775Z,27.30
2018-09-15T08:20:35.201Z,27.00
2018-09-15T08:23:03.503Z,26.50
2018-09-15T08:25:31.801Z,25.90
2018-09-15T08:28:00.068Z,26.30
2018-09-15T08:30:28.374Z,25.30
2018-09-15T08:32:56.654Z,26.70
2018-09-15T08:35:24.923Z,25.90
2018-09-15T08:37:53.199Z,26.60
2018-09-15T08:40:21.482Z,26.90
2018-09-15T08:42:49.810Z,24.70
2018-09-15T08:45:18.422Z,24.30
2018-09-15T08:47:46.731Z,24.40
2018-09-15T08:50:15.003Z,26.10
2018-09-15T08:52:43.475Z,26.70
2018-09-15T08:55:11.798Z,26.20
2018-09-15T08:57:40.148Z,26.20
2018-09-15T09:00:08.415Z,26.10
2018-09-15T09:02:36.731Z,26.10
2018-09-15T09:05:05.023Z,27.50
2018-09-15T09:07:34.509Z,27.80
2018-09-15T09:10:02.983Z,28.00
2018-09-15T09:12:31.252Z,28.10
2018-09-15T09:14:59.537Z,27.30
2018-09-15T09:17:27.831Z,27.60
2018-09-15T09:19:56.146Z,26.20
2018-09-15T09:22:24.397Z,26.10
2018-09-15T09:24:52.673Z,27.40
2018-09-15T09:27:20.946Z,26.60
2018-09-15T09:29:49.313Z,28.20
2018-09-15T09:32:17.654Z,29.50
2018-09-15T09:34:45.914Z,28.80
2018-09-15T09:37:14.484Z,29.10
2018-09-15T09:39:42.779Z,30.00
2018-09-15T09:42:11.054Z,31.10
2018-09-15T09:44:39.318Z,29.00
2018-09-15T09:47:07.670Z,29.90
2018-09-15T09:49:35.945Z,28.90
2018-09-15T09:52:04.546Z,27.70
2018-09-15T09:54:32.961Z,27.40
2018-09-15T09:57:01.239Z,26.20
2018-09-15T09:59:29.575Z,26.40
2018-09-15T10:02:03.674Z,26.80
2018-09-15T10:04:32.436Z,26.60
2018-09-15T10:07:00.853Z,25.70
2018-09-15T10:09:29.083Z,24.60
2018-09-15T10:11:57.378Z,25.90
2018-09-15T10:14:25.665Z,24.40
2018-09-15T10:16:53.935Z,24.80
2018-09-15T10:19:22.224Z,25.80
2018-09-15T10:21:50.834Z,25.20
2018-09-15T10:24:19.141Z,23.90
2018-09-15T10:26:47.462Z,24.70
2018-09-15T10:29:15.759Z,25.40
2018-09-15T10:31:44.026Z,26.20
2018-09-15T10:34:12.384Z,26.80
2018-09-15T10:36:40.638Z,26.30
2018-09-15T10:39:09.923Z,25.60
2018-09-15T10:41:38.191Z,26.10
2018-09-15T10:44:06.599Z,25.90
2018-09-15T10:46:35.120Z,26.80
2018-09-15T10:49:03.611Z,26.40
2018-09-15T10:51:31.902Z,26.30
2018-09-15T10:54:00.350Z,27.40
2018-09-15T10:56:28.810Z,26.80
2018-09-15T10:58:57.128Z,27.00
2018-09-15T11:01:25.387Z,28.80
2018-09-15T11:03:53.641Z,30.90
2018-09-15T11:06:21.936Z,32.50
2018-09-15T11:11:11.246Z,33.80
2018-09-15T11:13:39.579Z,35.30
2018-09-15T11:16:07.776Z,36.80
2018-09-15T11:18:36.040Z,38.00
2018-09-15T11:21:04.290Z,39.00
2018-09-15T11:23:32.569Z,38.60
2018-09-15T11:26:01.136Z,38.70
2018-09-15T11:28:29.442Z,34.80
2018-09-15T11:30:57.650Z,34.30
2018-09-15T11:33:25.938Z,34.60
2018-09-15T11:35:54.223Z,36.20
2018-09-15T11:38:22.479Z,38.10
2018-09-15T11:40:50.752Z,39.50
2018-09-15T11:43:18.996Z,39.00
2018-09-15T11:45:47.318Z,38.80
2018-09-15T11:48:15.549Z,38.90
2018-09-15T11:50:43.795Z,39.30
2018-09-15T11:53:12.042Z,38.80
2018-09-15T11:55:40.277Z,39.20
2018-09-15T11:58:08.692Z,37.60
2018-09-15T12:00:39.435Z,37.90
2018-09-15T12:03:08.288Z,37.40
2018-09-15T12:05:36.543Z,37.90
2018-09-15T12:08:04.791Z,36.10
2018-09-15T12:10:33.054Z,36.80
2018-09-15T12:13:01.385Z,36.20
2018-09-15T12:15:29.657Z,36.70
2018-09-15T12:17:57.940Z,36.90
2018-09-15T12:20:26.218Z,37.30
2018-09-15T12:22:54.590Z,37.00
2018-09-15T12:25:22.848Z,36.20
2018-09-15T12:27:51.218Z,37.40
2018-09-15T12:30:19.552Z,38.10
2018-09-15T12:32:47.836Z,38.40
2018-09-15T12:35:16.164Z,39.20
2018-09-15T12:37:44.427Z,40.10
2018-09-15T12:40:12.690Z,38.00
2018-09-15T12:42:40.988Z,40.10
2018-09-15T12:45:09.316Z,39.10
2018-09-15T12:47:37.569Z,37.00
2018-09-15T12:50:05.838Z,36.30
2018-09-15T12:52:34.115Z,37.90
2018-09-15T12:55:03.759Z,38.20
2018-09-15T12:57:32.028Z,36.50
2018-09-15T13:00:00.290Z,37.20
2018-09-15T13:02:28.550Z,38.60
2018-09-15T13:04:56.808Z,39.10
2018-09-15T13:07:25.089Z,40.10
2018-09-15T13:09:53.365Z,40.10
2018-09-15T13:12:21.630Z,40.30
2018-09-15T13:14:49.888Z,39.70
2018-09-15T13:17:18.218Z,40.00
2018-09-15T13:19:46.588Z,40.50
2018-09-15T13:22:14.849Z,40.50
2018-09-15T13:24:43.139Z,39.80
2018-09-15T13:27:11.408Z,40.50
2018-09-15T13:29:40.066Z,39.40
2018-09-15T13:32:08.154Z,39.60
2018-09-15T13:34:36.795Z,38.50
2018-09-15T13:37:05.242Z,39.20
2018-09-15T13:39:33.927Z,38.70
2018-09-15T13:42:02.202Z,39.00
2018-09-15T13:44:30.465Z,39.20
2018-09-15T13:49:31.895Z,39.70
2018-09-15T13:52:00.155Z,40.00
2018-09-15T13:54:28.421Z,40.30
2018-09-15T13:56:56.681Z,42.40
2018-09-15T13:59:24.953Z,42.50
2018-09-15T14:01:53.224Z,41.40
2018-09-15T14:04:21.520Z,42.10
2018-09-15T14:06:49.948Z,42.40
2018-09-15T14:09:18.204Z,41.90
2018-09-15T14:11:46.788Z,41.90
2018-09-15T14:14:15.044Z,42.80
2018-09-15T14:16:43.662Z,43.60
2018-09-15T14:19:11.864Z,42.10
2018-09-15T14:21:40.134Z,42.60
2018-09-15T14:24:08.393Z,43.30
2018-09-15T14:26:36.682Z,43.20
2018-09-15T14:29:04.974Z,42.50
2018-09-15T14:31:33.235Z,43.60
2018-09-15T14:34:01.701Z,42.70
2018-09-15T14:36:29.955Z,43.70
2018-09-15T14:38:58.364Z,44.20
2018-09-15T14:41:26.660Z,43.30
2018-09-15T14:43:54.915Z,44.30
2018-09-15T14:46:23.221Z,43.40
2018-09-15T14:48:51.501Z,44.00
2018-09-15T14:51:19.812Z,43.40
2018-09-15T14:53:48.209Z,42.10
2018-09-15T14:56:16.596Z,41.50
2018-09-15T14:58:44.844Z,41.90
2018-09-15T15:01:13.159Z,42.30
2018-09-15T15:03:41.408Z,42.40
2018-09-15T15:06:09.763Z,43.10
2018-09-15T15:08:38.003Z,43.20
2018-09-15T15:11:06.608Z,43.70
2018-09-15T15:13:34.931Z,44.20
2018-09-15T15:16:03.135Z,43.90
2018-09-15T15:18:31.967Z,43.80
2018-09-15T15:21:01.250Z,44.30
2018-09-15T15:23:29.506Z,44.20
2018-09-15T15:25:57.957Z,44.40
2018-09-15T15:28:26.440Z,44.40
2018-09-15T15:30:54.850Z,45.10
2018-09-15T15:33:23.297Z,44.40
2018-09-15T15:35:51.559Z,45.20
2018-09-15T15:38:19.867Z,44.40
2018-09-15T15:40:48.115Z,44.20
2018-09-15T15:43:16.389Z,45.20
2018-09-15T15:45:44.610Z,45.20
2018-09-15T15:48:12.839Z,45.70
2018-09-15T15:50:41.203Z,46.00
2018-09-15T15:53:09.527Z,44.60
2018-09-15T15:55:38.656Z,44.30
2018-09-15T15:58:07.121Z,44.30
2018-09-15T16:00:35.748Z,44.40
2018-09-15T16:03:04.468Z,44.80
2018-09-15T16:05:33.229Z,44.70
2018-09-15T16:08:01.694Z,44.50
2018-09-15T16:10:29.976Z,44.50
2018-09-15T16:12:58.373Z,44.10
2018-09-15T16:15:26.728Z,44.50
2018-09-15T16:17:55.098Z,44.30
2018-09-15T16:20:23.399Z,43.40
2018-09-15T16:22:51.730Z,43.80
2018-09-15T16:25:20.232Z,44.00
2018-09-15T16:27:48.803Z,45.50
2018-09-15T16:30:17.098Z,45.80
2018-09-15T16:32:45.500Z,46.40
2018-09-15T16:35:13.866Z,46.70
2018-09-15T16:37:42.169Z,46.60
2018-09-15T16:40:10.442Z,46.90
2018-09-15T16:42:38.824Z,47.80
2018-09-15T16:45:07.314Z,47.10
2018-09-15T16:47:35.714Z,47.70
2018-09-15T16:50:04.101Z,48.40
2018-09-15T16:52:32.367Z,48.40
2018-09-15T16:55:00.773Z,49.00
2018-09-15T16:57:29.064Z,49.20
2018-09-15T16:59:57.348Z,49.40
2018-09-15T17:02:25.642Z,50.10
2018-09-15T17:04:53.887Z,50.40
2018-09-15T17:07:22.145Z,49.80
2018-09-15T17:09:50.510Z,51.10
2018-09-15T17:12:18.903Z,51.70
2018-09-15T17:14:47.760Z,50.50
2018-09-15T17:17:16.185Z,51.80
2018-09-15T17:19:44.434Z,51.90
2018-09-15T17:22:12.667Z,53.40
2018-09-15T17:24:40.965Z,53.70
2018-09-15T17:27:09.345Z,54.30
2018-09-15T17:29:37.647Z,54.70
2018-09-15T17:32:06.110Z,56.20
2018-09-15T17:34:34.362Z,56.80
2018-09-15T17:37:02.621Z,57.30
2018-09-15T17:39:31.147Z,58.80
2018-09-15T17:41:59.471Z,59.50
2018-09-15T17:44:27.940Z,60.10
2018-09-15T17:46:56.185Z,60.80
2018-09-15T17:49:24.454Z,62.80
2018-09-15T17:51:52.882Z,63.20
2018-09-15T17:54:21.550Z,63.60
2018-09-15T17:56:49.794Z,65.10
2018-09-15T17:59:18.071Z,67.00
2018-09-15T18:01:46.352Z,69.00
2018-09-15T18:04:14.619Z,72.90
2018-09-15T18:06:42.961Z,78.50
2018-09-15T18:09:11.264Z,85.30
2018-09-15T18:11:40.075Z,90.60
2018-09-15T18:14:08.423Z,95.20
2018-09-15T18:16:36.911Z,97.60
2018-09-15T18:19:05.362Z,98.80
2018-09-15T18:21:33.711Z,99.90
2018-09-15T18:24:02.044Z,99.90
2018-09-15T18:26:30.291Z,99.90
2018-09-15T18:28:58.864Z,99.90
2018-09-15T18:31:27.114Z,99.90
2018-09-15T18:33:55.421Z,99.90
2018-09-15T18:36:23.682Z,99.90
2018-09-15T18:38:52.044Z,99.90
2018-09-15T18:41:20.516Z,99.90
2018-09-15T18:43:48.781Z,99.90
2018-09-15T18:46:17.131Z,99.90
2018-09-15T18:48:46.136Z,99.90
2018-09-15T18:51:14.527Z,99.90
2018-09-15T18:53:42.816Z,99.90
2018-09-15T18:56:11.058Z,99.90
2018-09-15T18:58:39.302Z,99.90
2018-09-15T19:01:07.571Z,99.90
2018-09-15T19:03:36.166Z,99.90
2018-09-15T19:06:04.558Z,99.90
2018-09-15T19:08:33.157Z,99.90
2018-09-15T19:11:01.504Z,99.90
2018-09-15T19:13:29.776Z,99.90
2018-09-15T19:15:58.040Z,99.90
2018-09-15T19:18:26.274Z,99.90
2018-09-15T19:20:54.541Z,99.90
2018-09-15T19:23:22.932Z,99.90
2018-09-15T19:25:51.183Z,99.90
2018-09-15T19:28:19.898Z,99.90
2018-09-15T19:30:48.196Z,99.90
2018-09-15T19:33:16.715Z,99.90
2018-09-15T19:35:44.968Z,99.90
2018-09-15T19:38:13.290Z,99.90
2018-09-15T19:40:41.678Z,99.90
2018-09-15T19:43:09.962Z,99.90
2018-09-15T19:45:38.417Z,99.90
2018-09-15T19:48:06.919Z,99.90
2018-09-15T19:50:36.726Z,99.90
2018-09-15T19:53:05.037Z,99.90
2018-09-15T19:55:33.403Z,99.90
2018-09-15T19:58:01.656Z,99.90
2018-09-15T20:00:29.979Z,99.90
2018-09-15T20:02:58.227Z,99.90
2018-09-15T20:05:26.618Z,99.90
2018-09-15T20:07:54.862Z,99.90
2018-09-15T20:10:23.114Z,99.90
2018-09-15T20:12:52.088Z,99.90
2018-09-15T20:15:22.808Z,99.90
2018-09-15T20:17:50.154Z,99.90
2018-09-15T20:20:17.537Z,99.90
2018-09-15T20:22:45.811Z,99.90
2018-09-15T20:25:14.293Z,99.90
2018-09-15T20:27:42.549Z,99.90
2018-09-15T20:30:11.180Z,99.90
2018-09-15T20:32:39.500Z,99.90
2018-09-15T20:35:07.761Z,99.90
2018-09-15T20:37:36.459Z,99.90
2018-09-15T20:40:04.730Z,99.90
2018-09-15T20:42:33.226Z,99.90
2018-09-15T20:45:01.482Z,99.90
2018-09-15T20:47:29.758Z,99.90
2018-09-15T20:49:58.012Z,99.90
2018-09-15T20:52:26.367Z,99.90
2018-09-15T20:54:54.627Z,99.90
2018-09-15T20:57:22.919Z,99.90
2018-09-15T20:59:51.174Z,99.90
2018-09-15T21:02:19.446Z,99.90
2018-09-15T21:04:47.698Z,99.90
2018-09-15T21:07:15.966Z,99.90
2018-09-15T21:09:44.281Z,99.90
2018-09-15T21:12:12.548Z,99.90
2018-09-15T21:14:40.899Z,99.90
2018-09-15T21:17:09.347Z,99.90
2018-09-15T21:19:37.664Z,99.90
2018-09-15T21:22:05.981Z,99.90
2018-09-15T21:24:34.264Z,99.90
2018-09-15T21:27:02.550Z,99.90
2018-09-15T21:29:31.087Z,99.90
2018-09-15T21:32:00.238Z,99.90
2018-09-15T21:34:28.638Z,99.90
2018-09-15T21:36:57.009Z,99.90
2018-09-15T21:39:25.282Z,99.90
2018-09-15T21:41:53.554Z,99.90
2018-09-15T21:44:21.866Z,99.90
2018-09-15T21:46:50.171Z,99.90
2018-09-15T21:49:18.463Z,99.90
2018-09-15T21:51:46.736Z,99.90
2018-09-15T21:54:15.021Z,99.90
2018-09-15T21:56:43.290Z,99.90
2018-09-15T21:59:11.567Z,99.90
2018-09-15T22:01:39.831Z,99.90
2018-09-15T22:04:13.636Z,99.90
2018-09-15T22:06:42.098Z,99.90
2018-09-15T22:09:11.938Z,99.90
2018-09-15T22:11:40.522Z,99.90
2018-09-15T22:14:08.918Z,99.90
2018-09-15T22:16:37.607Z,99.90
2018-09-15T22:19:06.103Z,99.90
2018-09-15T22:21:34.499Z,99.90
2018-09-15T22:24:03.060Z,99.90
2018-09-15T22:26:31.583Z,99.90
2018-09-15T22:28:59.854Z,99.90
2018-09-15T22:31:28.372Z,99.90
2018-09-15T22:33:56.737Z,99.90
2018-09-15T22:36:24.950Z,99.90
2018-09-15T22:38:53.225Z,99.90
2018-09-15T22:41:21.504Z,99.90
2018-09-15T22:43:49.974Z,99.90
2018-09-15T22:46:18.250Z,99.90
2018-09-15T22:48:46.624Z,99.90
2018-09-15T22:51:14.910Z,99.90
2018-09-15T22:53:43.231Z,99.90
2018-09-15T22:56:11.509Z,99.90
2018-09-15T22:58:39.858Z,99.90
2018-09-15T23:01:08.175Z,99.90
2018-09-15T23:03:36.437Z,99.90
2018-09-15T23:06:04.810Z,99.90
2018-09-15T23:08:33.248Z,99.90
2018-09-15T23:11:01.622Z,99.90
2018-09-15T23:13:29.905Z,99.90
2018-09-15T23:15:58.172Z,99.90
2018-09-15T23:18:26.467Z,99.90
2018-09-15T23:20:54.754Z,99.90
2018-09-15T23:23:23.022Z,99.90
2018-09-15T23:25:51.287Z,99.90
2018-09-15T23:28:19.628Z,99.90
2018-09-15T23:30:47.917Z,99.90
2018-09-15T23:33:16.190Z,99.90
2018-09-15T23:35:44.478Z,99.90
2018-09-15T23:38:12.751Z,99.90
2018-09-15T23:40:41.093Z,99.90
2018-09-15T23:43:09.368Z,99.90
2018-09-15T23:45:37.634Z,99.90
2018-09-15T23:48:05.907Z,99.90
2018-09-15T23:50:34.191Z,99.90
2018-09-15T23:53:02.503Z,99.90
2018-09-15T23:55:30.778Z,99.90
2018-09-15T23:57:59.067Z,99.90
